createdAt,value
2023-05-19T00:03:05.060Z,99.90
2023-05-19T00:08:09.031Z,99.90
2023-05-19T00:13:12.066Z,99.90
2023-05-19T00:18:14.017Z,99.90
2023-05-19T00:23:15.922Z,99.90
2023-05-19T00:28:17.634Z,99.90
2023-05-19T00:33:19.256Z,99.90
2023-05-19T00:38:21.087Z,99.90
2023-05-19T00:43:22.729Z,99.90
2023-05-19T00:48:27.448Z,99.90
2023-05-19T00:53:29.472Z,99.90
2023-05-19T00:58:32.537Z,99.90
2023-05-19T01:03:35.620Z,99.90
2023-05-19T01:08:37.915Z,99.90
2023-05-19T01:13:41.956Z,99.90
2023-05-19T01:18:47.300Z,99.90
2023-05-19T01:24:01.462Z,99.90
2023-05-19T01:35:09.120Z,99.90
2023-05-19T01:40:10.959Z,99.90
2023-05-19T01:45:13.602Z,99.90
2023-05-19T01:50:15.394Z,99.90
2023-05-19T01:55:17.099Z,99.90
2023-05-19T02:00:27.039Z,99.90
2023-05-19T02:05:34.098Z,99.90
2023-05-19T02:10:37.226Z,99.90
2023-05-19T02:15:40.474Z,99.90
2023-05-19T02:20:42.486Z,99.90
2023-05-19T02:25:44.264Z,99.90
2023-05-19T02:30:45.954Z,99.90
2023-05-19T02:35:47.694Z,99.90
2023-05-19T02:40:52.363Z,99.90
2023-05-19T02:45:54.090Z,99.90
2023-05-19T02:50:55.808Z,99.90
2023-05-19T02:55:57.548Z,99.90
2023-05-19T03:00:59.171Z,99.90
2023-05-19T03:06:01.850Z,99.90
2023-05-19T03:11:03.658Z,99.90
2023-05-19T03:16:07.992Z,99.90
2023-05-19T03:21:09.772Z,99.90
2023-05-19T03:26:12.609Z,99.90
2023-05-19T03:31:14.277Z,99.90
2023-05-19T03:36:15.934Z,99.90
2023-05-19T03:41:17.593Z,99.90
2023-05-19T03:46:19.399Z,99.90
2023-05-19T03:51:21.288Z,99.90
2023-05-19T03:56:24.926Z,99.90
2023-05-19T04:01:26.648Z,99.90
2023-05-19T04:06:28.330Z,99.90
2023-05-19T04:11:30.006Z,99.90
2023-05-19T04:16:32.105Z,99.90
2023-05-19T04:21:33.907Z,99.90
2023-05-19T04:26:36.022Z,99.90
2023-05-19T04:31:37.783Z,99.90
2023-05-19T04:36:39.562Z,99.90
2023-05-19T04:41:44.343Z,99.90
2023-05-19T04:46:46.164Z,99.90
2023-05-19T04:51:50.318Z,99.90
2023-05-19T04:56:52.503Z,99.90
2023-05-19T05:01:54.324Z,99.90
2023-05-19T05:06:56.090Z,99.90
2023-05-19T05:11:58.124Z,99.90
2023-05-19T05:17:00.055Z,99.90
2023-05-19T05:22:01.837Z,99.90
2023-05-19T05:27:03.917Z,99.90
2023-05-19T05:32:05.829Z,99.90
2023-05-19T05:37:07.574Z,99.90
2023-05-19T05:42:09.650Z,99.90
2023-05-19T05:47:12.270Z,99.90
2023-05-19T05:52:15.206Z,99.90
2023-05-19T05:57:17.144Z,99.90
2023-05-19T06:02:19.039Z,99.90
2023-05-19T06:07:21.231Z,99.90
2023-05-19T06:12:23.039Z,99.90
2023-05-19T06:17:24.771Z,99.90
2023-05-19T06:22:27.805Z,99.90
2023-05-19T06:27:32.648Z,99.90
2023-05-19T06:32:36.382Z,99.90
2023-05-19T06:37:39.338Z,99.90
2023-05-19T06:42:41.058Z,99.90
2023-05-19T06:47:44.579Z,99.90
2023-05-19T06:52:47.088Z,99.90
2023-05-19T06:57:48.747Z,99.90
2023-05-19T07:02:50.651Z,99.90
2023-05-19T07:07:52.407Z,99.90
2023-05-19T07:12:54.144Z,99.90
2023-05-19T07:17:55.926Z,99.90
2023-05-19T07:22:57.665Z,99.90
2023-05-19T07:28:00.655Z,99.90
2023-05-19T07:33:05.539Z,99.90
2023-05-19T07:38:07.522Z,99.90
2023-05-19T07:43:09.317Z,99.90
2023-05-19T07:48:11.035Z,99.90
2023-05-19T07:53:12.918Z,99.90
2023-05-19T07:58:14.899Z,99.90
2023-05-19T08:03:18.272Z,99.90
2023-05-19T08:08:20.286Z,99.90
2023-05-19T08:13:22.255Z,99.90
2023-05-19T08:18:23.959Z,99.90
2023-05-19T08:23:26.013Z,99.90
2023-05-19T08:28:27.676Z,99.90
2023-05-19T08:33:29.576Z,99.90
2023-05-19T08:38:31.209Z,99.90
2023-05-19T08:43:32.899Z,99.90
2023-05-19T08:48:35.401Z,99.90
2023-05-19T08:53:39.946Z,99.90
2023-05-19T08:58:44.070Z,99.90
2023-05-19T09:03:47.407Z,99.90
2023-05-19T09:08:49.551Z,99.90
2023-05-19T09:13:51.359Z,99.90
2023-05-19T09:19:00.937Z,99.90
2023-05-19T09:24:06.426Z,99.90
2023-05-19T09:29:15.926Z,99.90
2023-05-19T09:34:17.949Z,99.90
2023-05-19T09:39:20.229Z,99.90
2023-05-19T09:44:29.541Z,99.90
2023-05-19T09:49:32.732Z,99.90
2023-05-19T09:54:34.618Z,99.90
2023-05-19T09:59:38.945Z,99.90
2023-05-19T10:04:41.291Z,99.90
2023-05-19T10:09:43.668Z,99.90
2023-05-19T10:14:45.639Z,99.90
2023-05-19T10:19:47.783Z,99.90
2023-05-19T10:24:49.489Z,99.80
2023-05-19T10:29:51.871Z,99.90
2023-05-19T10:34:53.564Z,95.70
2023-05-19T10:39:55.832Z,98.50
2023-05-19T10:45:20.586Z,95.60
2023-05-19T10:50:22.496Z,96.70
2023-05-19T10:55:43.236Z,93.90
2023-05-19T11:00:44.873Z,95.60
2023-05-19T11:05:49.919Z,91.20
2023-05-19T11:10:51.996Z,91.40
2023-05-19T11:15:56.228Z,91.60
2023-05-19T11:21:02.145Z,92.00
2023-05-19T11:26:03.971Z,91.10
2023-05-19T11:31:08.137Z,90.80
2023-05-19T11:36:10.854Z,87.80
2023-05-19T11:41:15.588Z,87.80
2023-05-19T11:46:18.059Z,89.10
2023-05-19T11:51:21.053Z,87.90
2023-05-19T11:56:22.721Z,85.00
2023-05-19T12:01:26.912Z,84.00
2023-05-19T12:06:29.655Z,84.00
2023-05-19T12:11:31.821Z,84.70
2023-05-19T12:16:34.597Z,84.30
2023-05-19T12:21:36.416Z,86.70
2023-05-19T12:26:38.203Z,85.30
2023-05-19T12:31:40.207Z,83.70
2023-05-19T12:36:42.506Z,83.00
2023-05-19T12:41:47.270Z,86.40
2023-05-19T12:46:51.904Z,82.30
2023-05-19T12:51:54.040Z,81.60
2023-05-19T12:56:57.584Z,82.50
2023-05-19T13:01:59.485Z,80.40
2023-05-19T13:07:01.714Z,80.40
2023-05-19T13:12:04.778Z,80.00
2023-05-19T13:17:06.639Z,79.80
2023-05-19T13:22:08.549Z,76.80
2023-05-19T13:27:13.335Z,76.20
2023-05-19T13:32:15.028Z,78.30
2023-05-19T13:37:16.798Z,77.50
2023-05-19T13:42:18.577Z,76.30
2023-05-19T13:47:20.392Z,76.00
2023-05-19T13:52:22.133Z,75.30
2023-05-19T13:57:24.287Z,75.00
2023-05-19T14:02:27.110Z,74.30
2023-05-19T14:07:28.938Z,74.40
2023-05-19T14:12:43.150Z,72.90
2023-05-19T14:17:53.445Z,72.80
2023-05-19T14:22:56.276Z,72.70
2023-05-19T14:28:01.077Z,73.60
2023-05-19T14:33:03.219Z,74.60
2023-05-19T14:38:06.405Z,74.50
2023-05-19T14:43:08.387Z,73.40
2023-05-19T14:48:12.004Z,74.10
2023-05-19T14:53:13.825Z,74.00
2023-05-19T14:58:27.576Z,71.10
2023-05-19T15:03:30.479Z,71.80
2023-05-19T15:08:33.398Z,69.60
2023-05-19T15:13:35.068Z,73.30
2023-05-19T15:18:37.835Z,71.90
2023-05-19T15:23:39.629Z,74.90
2023-05-19T15:28:41.458Z,71.20
2023-05-19T15:33:43.123Z,70.00
2023-05-19T15:38:44.886Z,71.80
2023-05-19T15:43:46.651Z,72.70
2023-05-19T15:48:48.436Z,73.40
2023-05-19T15:53:50.275Z,75.00
2023-05-19T15:58:52.036Z,74.40
2023-05-19T16:03:53.840Z,76.40
2023-05-19T16:08:56.735Z,77.20
2023-05-19T16:13:59.457Z,76.20
2023-05-19T16:19:02.226Z,75.70
2023-05-19T16:24:04.178Z,78.00
2023-05-19T16:29:07.826Z,77.50
2023-05-19T16:34:09.548Z,79.50
2023-05-19T16:39:11.290Z,78.30
2023-05-19T16:44:14.648Z,78.90
2023-05-19T16:49:16.454Z,81.50
2023-05-19T16:54:18.503Z,80.40
2023-05-19T16:59:20.198Z,82.60
2023-05-19T17:04:22.953Z,80.50
2023-05-19T17:09:26.327Z,80.80
2023-05-19T17:14:29.075Z,83.30
2023-05-19T17:19:31.409Z,84.10
2023-05-19T17:24:33.358Z,83.10
2023-05-19T17:29:36.895Z,83.40
2023-05-19T17:34:39.788Z,83.40
2023-05-19T17:39:42.465Z,83.90
2023-05-19T17:44:45.205Z,85.50
2023-05-19T17:49:48.005Z,85.90
2023-05-19T17:54:50.572Z,86.00
2023-05-19T17:59:52.443Z,87.90
2023-05-19T18:04:54.341Z,87.20
2023-05-19T18:09:56.353Z,88.60
2023-05-19T18:14:58.076Z,89.60
2023-05-19T18:20:02.073Z,90.30
2023-05-19T18:25:06.052Z,90.40
2023-05-19T18:30:08.150Z,90.50
2023-05-19T18:35:10.083Z,91.40
2023-05-19T18:40:11.930Z,91.40
2023-05-19T18:45:13.660Z,93.40
2023-05-19T18:50:15.361Z,94.00
2023-05-19T18:55:17.196Z,94.80
2023-05-19T19:00:20.074Z,95.90
2023-05-19T19:05:24.129Z,98.10
2023-05-19T19:10:29.891Z,99.00
2023-05-19T19:15:33.772Z,98.30
2023-05-19T19:20:35.696Z,99.30
2023-05-19T19:25:38.570Z,99.90
2023-05-19T19:30:40.406Z,99.90
2023-05-19T19:35:43.943Z,99.90
2023-05-19T19:40:45.608Z,99.90
2023-05-19T19:45:47.271Z,99.90
2023-05-19T19:50:53.422Z,99.90
2023-05-19T19:55:58.800Z,99.90
2023-05-19T20:01:02.455Z,99.90
2023-05-19T20:06:08.609Z,99.90
2023-05-19T20:11:10.328Z,99.90
2023-05-19T20:16:13.121Z,99.90
2023-05-19T20:21:14.852Z,99.90
2023-05-19T20:26:17.069Z,99.90
2023-05-19T20:31:18.825Z,99.90
2023-05-19T20:36:20.943Z,99.90
2023-05-19T20:41:22.594Z,99.90
2023-05-19T20:46:24.237Z,99.90
2023-05-19T20:51:27.051Z,99.90
2023-05-19T20:56:28.716Z,99.90
2023-05-19T21:01:30.513Z,99.90
2023-05-19T21:06:32.357Z,99.90
2023-05-19T21:11:34.136Z,99.90
2023-05-19T21:16:38.771Z,99.90
2023-05-19T21:21:42.754Z,99.90
2023-05-19T21:26:44.427Z,99.90
2023-05-19T21:31:46.049Z,99.90
2023-05-19T21:36:49.403Z,99.90
2023-05-19T21:41:51.656Z,99.90
2023-05-19T21:46:53.430Z,99.90
2023-05-19T21:51:55.585Z,99.90
2023-05-19T21:56:57.238Z,99.90
2023-05-19T22:01:58.964Z,99.90
2023-05-19T22:07:00.689Z,99.90
2023-05-19T22:12:02.446Z,99.90
2023-05-19T22:17:04.190Z,99.90
2023-05-19T22:22:13.894Z,99.90
2023-05-19T22:27:16.336Z,99.90
2023-05-19T22:32:19.415Z,99.90
2023-05-19T22:37:22.391Z,99.90
2023-05-19T22:42:24.227Z,99.90
2023-05-19T22:47:25.980Z,99.90
2023-05-19T22:52:27.806Z,99.90
2023-05-19T22:57:29.570Z,99.90
2023-05-19T23:02:31.298Z,99.90
2023-05-19T23:07:33.122Z,99.90
2023-05-19T23:12:34.883Z,99.90
2023-05-19T23:17:36.926Z,99.90
2023-05-19T23:22:38.751Z,99.90
2023-05-19T23:27:40.939Z,99.90
2023-05-19T23:32:42.674Z,99.90
2023-05-19T23:37:44.429Z,99.90
2023-05-19T23:42:46.293Z,99.90
2023-05-19T23:47:48.028Z,99.90
2023-05-19T23:52:49.713Z,99.90
2023-05-19T23:57:51.393Z,99.90
